Time;durP1;ratioP1;P1;durP2;ratioP2;P2;SDS_P1;SDS_P2;PMS_P1;PMS_P2;Temp;Humidity;BMP_temperature;BMP_pressure;BME280_temperature;BME280_humidity;BME280_pressure;Samples;Min_cycle;Max_cycle;Signal;HPM_P1;HPM_P2
2022/07/04 00:01:19;;;;;;;1.13;0.80;;;22.70;92.50;;;;;;5024831;28;20938;-85
2022/07/04 00:03:45;;;;;;;1.00;0.70;;;22.70;92.60;;;;;;5028862;28;20512;-85
2022/07/04 00:06:12;;;;;;;0.87;0.63;;;22.70;92.70;;;;;;5026955;28;20477;-85
2022/07/04 00:08:39;;;;;;;0.97;0.80;;;22.70;92.70;;;;;;5029033;28;20465;-84
2022/07/04 00:11:05;;;;;;;1.10;0.87;;;22.60;92.70;;;;;;5019813;28;20461;-85
2022/07/04 00:13:32;;;;;;;1.03;0.70;;;22.60;92.80;;;;;;5029062;28;20458;-85
2022/07/04 00:16:00;;;;;;;2.53;0.87;;;22.60;92.70;;;;;;5020496;28;20463;-86
2022/07/04 00:18:27;;;;;;;1.17;1.00;;;22.60;92.80;;;;;;5028367;28;20497;-85
2022/07/04 00:20:54;;;;;;;1.10;0.80;;;22.60;92.80;;;;;;5027885;28;20950;-86
2022/07/04 00:23:21;;;;;;;1.00;0.87;;;22.50;92.80;;;;;;5029111;28;20461;-85
2022/07/04 00:25:47;;;;;;;2.70;0.80;;;22.50;92.80;;;;;;5029458;28;20454;-85
2022/07/04 00:28:14;;;;;;;1.40;0.90;;;22.50;92.90;;;;;;5033938;28;20509;-86
2022/07/04 00:30:41;;;;;;;1.00;0.80;;;22.50;92.90;;;;;;5029287;28;20458;-86
2022/07/04 00:33:13;;;;;;;1.17;0.90;;;22.40;93.00;;;;;;5021097;28;20450;-85
2022/07/04 00:35:40;;;;;;;1.03;0.80;;;22.40;93.10;;;;;;5019197;28;20521;-86
2022/07/04 00:38:07;;;;;;;0.90;0.70;;;22.40;93.10;;;;;;5015166;28;20447;-85
2022/07/04 00:40:33;;;;;;;2.87;0.93;;;22.40;93.20;;;;;;5030934;28;20466;-85
2022/07/04 00:43:02;;;;;;;2.40;0.80;;;22.40;93.20;;;;;;5026432;28;20454;-85
2022/07/04 00:45:28;;;;;;;1.47;0.97;;;22.30;93.20;;;;;;5029901;28;20545;-85
2022/07/04 00:47:55;;;;;;;2.20;0.90;;;22.30;93.30;;;;;;5015079;28;20463;-86
2022/07/04 00:50:24;;;;;;;1.30;0.90;;;22.30;93.30;;;;;;5033415;28;20451;-86
2022/07/04 00:52:52;;;;;;;1.40;0.90;;;22.30;93.30;;;;;;5026563;28;20444;-86
2022/07/04 00:55:19;;;;;;;1.37;0.90;;;22.30;93.40;;;;;;5029529;28;20845;-86
2022/07/04 00:57:46;;;;;;;1.33;0.80;;;22.20;93.40;;;;;;5032109;28;20450;-86
2022/07/04 01:00:14;;;;;;;3.00;0.90;;;22.20;93.40;;;;;;5030003;28;20544;-85
2022/07/04 01:02:40;;;;;;;1.10;0.80;;;22.20;93.50;;;;;;5020348;28;20534;-85
2022/07/04 01:05:08;;;;;;;1.33;0.70;;;22.20;93.50;;;;;;5025824;28;20462;-86
2022/07/04 01:07:36;;;;;;;1.33;1.00;;;22.10;93.50;;;;;;5028446;28;20451;-86
2022/07/04 01:10:04;;;;;;;1.07;0.87;;;22.10;93.60;;;;;;5023205;28;20466;-85
2022/07/04 01:12:31;;;;;;;1.77;0.77;;;22.10;93.60;;;;;;5018873;28;20463;-86
2022/07/04 01:14:58;;;;;;;2.70;0.93;;;22.10;93.70;;;;;;5027007;28;20470;-86
2022/07/04 01:17:25;;;;;;;1.30;0.90;;;22.10;93.70;;;;;;5024567;28;20834;-85
2022/07/04 01:19:52;;;;;;;1.20;0.80;;;22.00;93.70;;;;;;5025364;28;20486;-86
2022/07/04 01:22:21;;;;;;;1.17;0.90;;;22.00;93.70;;;;;;5029612;28;20829;-85
2022/07/04 01:24:47;;;;;;;1.20;0.80;;;22.00;93.80;;;;;;5028092;28;20714;-85
2022/07/04 01:27:14;;;;;;;1.10;0.90;;;22.00;93.90;;;;;;5032154;28;20442;-86
2022/07/04 01:29:41;;;;;;;1.10;0.80;;;22.00;94.00;;;;;;5030628;28;20976;-85
2022/07/04 01:32:10;;;;;;;0.90;0.70;;;21.90;94.00;;;;;;5029419;28;20964;-86
2022/07/04 01:34:38;;;;;;;1.17;0.90;;;21.90;94.00;;;;;;5020794;28;20466;-86
2022/07/04 01:37:05;;;;;;;1.10;0.80;;;21.90;94.00;;;;;;5029945;28;20458;-85
2022/07/04 01:39:33;;;;;;;1.30;0.70;;;21.90;94.10;;;;;;5017085;28;20479;-86
2022/07/04 01:42:00;;;;;;;1.33;1.00;;;21.90;94.50;;;;;;5024543;28;20465;-86
2022/07/04 01:44:27;;;;;;;1.77;0.80;;;21.80;94.20;;;;;;5031386;28;20528;-86
2022/07/04 01:46:53;;;;;;;1.10;0.97;;;21.80;94.20;;;;;;5026655;28;20459;-85
2022/07/04 01:49:20;;;;;;;1.00;0.90;;;21.80;94.40;;;;;;5028457;28;20462;-86
2022/07/04 01:51:48;;;;;;;1.00;0.80;;;21.80;94.40;;;;;;5032619;28;20454;-86
2022/07/04 01:54:14;;;;;;;1.80;0.90;;;21.70;94.40;;;;;;5018249;28;20455;-85
2022/07/04 01:56:43;;;;;;;1.83;0.90;;;21.70;94.50;;;;;;5030930;28;20441;-85
2022/07/04 01:59:10;;;;;;;1.17;0.77;;;21.70;94.60;;;;;;5030081;28;20478;-85
2022/07/04 02:01:37;;;;;;;1.10;0.80;;;21.70;94.70;;;;;;5020054;28;20483;-85
2022/07/04 02:04:05;;;;;;;1.30;0.80;;;21.70;94.70;;;;;;5023564;28;20833;-86
2022/07/04 02:06:33;;;;;;;1.43;0.90;;;21.60;94.70;;;;;;5031071;28;20489;-86
2022/07/04 02:09:19;;;;;;;1.10;0.73;;;21.60;94.80;;;;;;5025812;28;20540;-85
2022/07/04 02:14:32;;;;;;;1.70;0.80;;;21.60;95.00;;;;;;5028110;28;21737;-86
2022/07/04 02:16:59;;;;;;;1.30;0.80;;;21.60;95.10;;;;;;5030005;28;20992;-85
2022/07/04 02:19:26;;;;;;;1.03;0.77;;;21.60;95.10;;;;;;5026730;28;21011;-86
2022/07/04 02:21:52;;;;;;;1.20;0.80;;;21.50;95.10;;;;;;5023806;28;20452;-85
2022/07/04 02:24:20;;;;;;;1.10;0.90;;;21.50;95.50;;;;;;5024484;28;20945;-85
2022/07/04 02:26:48;;;;;;;1.33;1.00;;;21.50;95.20;;;;;;5017165;28;20486;-84
2022/07/04 02:29:15;;;;;;;1.20;0.80;;;21.50;95.30;;;;;;5029895;28;20462;-84
2022/07/04 02:31:42;;;;;;;1.10;0.83;;;21.50;95.40;;;;;;5025724;28;20454;-84
2022/07/04 02:34:09;;;;;;;2.20;0.90;;;21.50;95.50;;;;;;5026911;28;20961;-85
2022/07/04 02:36:36;;;;;;;1.10;0.90;;;21.40;95.50;;;;;;5030475;28;20931;-86
2022/07/04 02:39:04;;;;;;;1.93;1.00;;;21.40;95.60;;;;;;5021680;28;20988;-85
2022/07/04 02:41:31;;;;;;;1.10;1.00;;;21.40;95.60;;;;;;5022305;28;20487;-84
2022/07/04 02:43:59;;;;;;;1.63;1.10;;;21.40;95.60;;;;;;5031585;28;20191;-85
2022/07/04 02:46:26;;;;;;;2.27;0.93;;;21.40;95.60;;;;;;5028671;28;20528;-86
2022/07/04 02:48:53;;;;;;;2.37;0.90;;;21.30;95.70;;;;;;5025115;28;20490;-84
2022/07/04 02:51:20;;;;;;;1.07;0.93;;;21.30;95.70;;;;;;5031553;28;20458;-84
2022/07/04 02:53:47;;;;;;;1.83;0.90;;;21.30;95.80;;;;;;5023861;28;20466;-83
2022/07/04 02:56:13;;;;;;;1.10;0.90;;;21.30;95.90;;;;;;5026817;28;20469;-82
2022/07/04 02:58:40;;;;;;;1.30;0.93;;;21.20;95.90;;;;;;5027724;28;20466;-83
2022/07/04 03:01:08;;;;;;;1.42;0.90;;;21.20;95.90;;;;;;5025529;28;20458;-83
2022/07/04 03:03:35;;;;;;;1.20;0.80;;;21.20;96.00;;;;;;5020329;28;20655;-82
2022/07/04 03:06:02;;;;;;;1.65;1.00;;;21.20;96.00;;;;;;5016197;28;20457;-83
2022/07/04 03:08:29;;;;;;;1.40;0.95;;;21.20;96.10;;;;;;5019328;28;20207;-83
2022/07/04 03:10:56;;;;;;;1.50;1.00;;;21.10;96.10;;;;;;5019001;28;20203;-83
2022/07/04 03:13:24;;;;;;;1.30;1.00;;;21.10;96.10;;;;;;5017927;28;20459;-83
2022/07/04 03:15:51;;;;;;;1.00;0.80;;;21.10;96.20;;;;;;5020775;28;20489;-81
2022/07/04 03:18:19;;;;;;;1.53;0.90;;;21.10;96.20;;;;;;5021361;28;20203;-81
2022/07/04 03:20:45;;;;;;;1.10;0.93;;;21.10;96.20;;;;;;5026861;28;20491;-81
2022/07/04 03:23:12;;;;;;;1.90;0.95;;;21.10;96.40;;;;;;5026078;28;20485;-81
2022/07/04 03:25:39;;;;;;;1.17;0.80;;;21.00;96.30;;;;;;5029745;28;20195;-82
2022/07/04 03:28:07;;;;;;;2.55;1.00;;;21.00;96.40;;;;;;5031553;28;20536;-82
2022/07/04 03:30:34;;;;;;;1.73;1.10;;;21.00;96.50;;;;;;5025869;28;20301;-82
2022/07/04 03:33:01;;;;;;;0.90;0.70;;;21.00;96.50;;;;;;5021232;28;20566;-81
2022/07/04 03:35:30;;;;;;;1.33;1.00;;;21.00;96.60;;;;;;5022423;28;20593;-82
2022/07/04 03:37:57;;;;;;;1.00;0.80;;;20.90;96.60;;;;;;5025689;28;20204;-82
2022/07/04 03:40:24;;;;;;;2.50;1.00;;;20.90;96.70;;;;;;5027530;28;20223;-82
2022/07/04 03:42:51;;;;;;;1.00;0.73;;;20.90;96.80;;;;;;5021742;28;20969;-82
2022/07/04 03:45:18;;;;;;;1.52;1.23;;;20.90;96.80;;;;;;5011541;28;20200;-82
2022/07/04 03:47:45;;;;;;;1.10;0.80;;;20.80;96.80;;;;;;5023399;28;20200;-83
2022/07/04 03:50:11;;;;;;;1.33;0.93;;;20.90;96.90;;;;;;5025121;28;20455;-84
2022/07/04 03:52:39;;;;;;;0.93;0.80;;;20.80;96.90;;;;;;5021600;28;20570;-82
2022/07/04 03:55:07;;;;;;;1.55;0.80;;;20.80;97.00;;;;;;5024669;28;20459;-82
2022/07/04 03:57:34;;;;;;;1.20;0.85;;;20.80;97.00;;;;;;5026412;28;20689;-82
2022/07/04 04:00:01;;;;;;;2.00;0.90;;;20.80;97.20;;;;;;5025703;28;20212;-82
2022/07/04 04:02:27;;;;;;;1.90;1.08;;;20.80;97.20;;;;;;5019761;28;20215;-82
2022/07/04 04:07:40;;;;;;;1.40;1.00;;;20.70;97.20;;;;;;5025664;28;20199;-84
2022/07/04 04:10:08;;;;;;;2.08;0.98;;;20.70;97.30;;;;;;5016052;28;20204;-83
2022/07/04 04:12:35;;;;;;;2.00;1.00;;;20.70;97.40;;;;;;5024053;28;20204;-83
2022/07/04 04:15:02;;;;;;;1.70;0.90;;;20.70;97.40;;;;;;5016997;28;20199;-84
2022/07/04 04:17:29;;;;;;;1.00;0.80;;;20.70;97.40;;;;;;5028014;28;20211;-85
2022/07/04 04:19:56;;;;;;;1.95;1.10;;;20.70;97.50;;;;;;5028453;28;20218;-84
2022/07/04 04:22:22;;;;;;;1.58;0.90;;;20.70;97.60;;;;;;5025581;28;20203;-84
2022/07/04 04:24:50;;;;;;;1.20;1.00;;;20.70;97.60;;;;;;5025780;28;20254;-83
2022/07/04 04:27:18;;;;;;;1.10;0.80;;;20.60;97.60;;;;;;5023912;28;20199;-83
2022/07/04 04:29:44;;;;;;;1.65;0.90;;;20.60;97.60;;;;;;5030619;28;20446;-83
2022/07/04 04:32:11;;;;;;;1.10;0.90;;;20.60;97.70;;;;;;5023388;28;20226;-83
2022/07/04 04:34:38;;;;;;;1.10;0.90;;;20.60;97.70;;;;;;5017936;28;20469;-83
2022/07/04 04:37:05;;;;;;;1.20;0.90;;;20.60;97.80;;;;;;5020622;28;20242;-83
2022/07/04 04:39:31;;;;;;;1.30;0.80;;;20.60;97.90;;;;;;5012555;28;20586;-83
2022/07/04 04:41:59;;;;;;;2.75;0.90;;;20.60;97.90;;;;;;5025955;28;20198;-84
2022/07/04 04:44:26;;;;;;;1.75;1.00;;;20.60;98.00;;;;;;5030303;28;20677;-83
2022/07/04 04:46:53;;;;;;;1.20;0.90;;;20.60;98.00;;;;;;5026190;28;20644;-83
2022/07/04 04:49:20;;;;;;;1.30;0.88;;;20.50;98.10;;;;;;5029359;28;20199;-83
2022/07/04 04:51:46;;;;;;;1.60;1.00;;;20.50;98.10;;;;;;5022419;28;20196;-83
2022/07/04 04:54:13;;;;;;;2.05;1.10;;;20.50;98.20;;;;;;5027788;28;20195;-83
2022/07/04 04:56:40;;;;;;;1.80;1.00;;;20.50;98.20;;;;;;5034109;28;20195;-83
2022/07/04 04:59:09;;;;;;;1.90;1.10;;;20.50;98.30;;;;;;5032084;28;20215;-84
2022/07/04 05:01:36;;;;;;;1.55;0.98;;;20.50;98.40;;;;;;5015253;28;20232;-83
2022/07/04 05:04:03;;;;;;;2.20;1.00;;;20.50;98.40;;;;;;5027308;28;20207;-83
2022/07/04 05:06:30;;;;;;;1.10;0.95;;;20.50;98.50;;;;;;5030688;28;20651;-83
2022/07/04 05:08:57;;;;;;;1.10;0.90;;;20.50;98.50;;;;;;5028868;28;20211;-84
2022/07/04 05:11:24;;;;;;;2.30;1.10;;;20.50;98.60;;;;;;5021310;28;20677;-83
2022/07/04 05:13:51;;;;;;;1.42;1.00;;;20.50;98.70;;;;;;5031733;28;20211;-83
2022/07/04 05:16:19;;;;;;;4.55;1.13;;;20.50;98.70;;;;;;5025248;28;20202;-82
2022/07/04 05:18:45;;;;;;;1.55;1.17;;;20.50;98.80;;;;;;5024131;28;20238;-83
2022/07/04 05:21:12;;;;;;;1.85;0.80;;;20.50;98.90;;;;;;5025495;28;20698;-83
2022/07/04 05:23:39;;;;;;;1.33;0.98;;;20.50;98.90;;;;;;5024026;28;20203;-83
2022/07/04 05:26:06;;;;;;;2.55;1.02;;;20.50;99.00;;;;;;5029472;28;20211;-83
2022/07/04 05:28:32;;;;;;;1.95;0.95;;;20.50;99.10;;;;;;5032832;28;20207;-83
2022/07/04 05:30:59;;;;;;;3.05;1.33;;;20.50;99.10;;;;;;5029210;28;20220;-83
2022/07/04 05:33:27;;;;;;;1.67;0.95;;;20.50;99.20;;;;;;5014711;28;20569;-83
2022/07/04 05:35:54;;;;;;;2.45;1.25;;;20.50;99.10;;;;;;5029338;28;20662;-83
2022/07/04 05:38:21;;;;;;;2.37;1.10;;;20.70;99.10;;;;;;5031392;28;20203;-82
2022/07/04 05:40:47;;;;;;;2.17;1.20;;;20.80;99.10;;;;;;5026914;28;20483;-82
2022/07/04 05:43:14;;;;;;;1.40;1.17;;;21.20;98.80;;;;;;5032825;28;20203;-82
2022/07/04 05:45:41;;;;;;;1.92;1.10;;;21.50;98.20;;;;;;5029561;28;20459;-82
2022/07/04 05:48:07;;;;;;;2.90;0.90;;;21.80;97.30;;;;;;5028746;28;20193;-83
2022/07/04 05:50:35;;;;;;;1.60;1.10;;;22.10;96.60;;;;;;5025325;28;20487;-82
2022/07/04 05:53:02;;;;;;;2.00;0.90;;;22.40;96.00;;;;;;5013036;28;20443;-81
2022/07/04 05:55:29;;;;;;;2.00;1.40;;;22.50;95.40;;;;;;5026974;28;20470;-83
2022/07/04 05:57:56;;;;;;;1.30;1.00;;;22.70;95.00;;;;;;5032855;28;20442;-82
2022/07/04 06:00:23;;;;;;;1.23;0.90;;;22.90;94.60;;;;;;5030419;28;21001;-82
2022/07/04 06:02:49;;;;;;;1.97;0.90;;;23.00;94.30;;;;;;5026430;28;20485;-82
2022/07/04 06:05:16;;;;;;;5.17;1.10;;;23.20;94.00;;;;;;5028874;28;20459;-82
2022/07/04 06:07:44;;;;;;;1.70;1.30;;;23.30;93.70;;;;;;5025601;28;20467;-82
2022/07/04 06:10:11;;;;;;;1.87;0.90;;;23.40;93.50;;;;;;5025808;28;20459;-82
2022/07/04 06:12:38;;;;;;;1.97;1.47;;;23.50;93.20;;;;;;5032778;28;20454;-82
2022/07/04 06:15:06;;;;;;;1.30;0.93;;;23.60;93.00;;;;;;5025986;28;20871;-83
2022/07/04 06:17:33;;;;;;;1.00;0.80;;;23.70;92.70;;;;;;5020471;28;20991;-83
2022/07/04 06:20:00;;;;;;;1.93;1.30;;;23.80;92.60;;;;;;5025859;28;21002;-83
2022/07/04 06:22:27;;;;;;;1.20;1.00;;;23.90;92.40;;;;;;5020529;28;20952;-82
2022/07/04 06:24:55;;;;;;;1.23;1.00;;;23.90;92.20;;;;;;5028838;28;20459;-82
2022/07/04 06:27:22;;;;;;;1.47;1.30;;;24.00;92.00;;;;;;5026378;28;20451;-82
2022/07/04 06:29:48;;;;;;;1.60;1.00;;;24.00;91.90;;;;;;5030392;28;20451;-82
2022/07/04 06:32:15;;;;;;;1.53;1.10;;;24.10;91.80;;;;;;5029130;28;20469;-82
2022/07/04 06:37:26;;;;;;;1.53;0.80;;;24.20;91.60;;;;;;5023781;28;20505;-82
2022/07/04 06:39:54;;;;;;;4.60;1.00;;;24.30;91.50;;;;;;5022587;28;20455;-82
2022/07/04 06:42:21;;;;;;;3.40;1.00;;;24.30;91.40;;;;;;5024261;28;20454;-81
2022/07/04 06:44:48;;;;;;;1.10;0.90;;;24.30;91.30;;;;;;5021267;28;20468;-82
2022/07/04 06:47:14;;;;;;;2.23;1.10;;;24.40;91.20;;;;;;5018439;28;20452;-82
2022/07/04 06:49:41;;;;;;;1.30;0.90;;;24.50;91.10;;;;;;5025546;28;20442;-82
2022/07/04 06:52:08;;;;;;;1.47;1.00;;;24.50;91.00;;;;;;5049496;28;20437;-81
2022/07/04 06:54:34;;;;;;;1.13;0.97;;;24.60;91.00;;;;;;5026954;28;20466;-81
2022/07/04 06:57:05;;;;;;;1.37;0.73;;;24.60;90.90;;;;;;5032527;28;20956;-82
2022/07/04 06:59:31;;;;;;;1.80;1.00;;;24.70;90.80;;;;;;5027410;28;20943;-82
2022/07/04 07:01:58;;;;;;;1.87;0.90;;;24.80;90.70;;;;;;5022714;28;20486;-82
2022/07/04 07:04:25;;;;;;;1.67;1.20;;;24.80;90.50;;;;;;5027494;28;20686;-81
2022/07/04 07:06:51;;;;;;;1.27;0.90;;;24.90;90.50;;;;;;5022640;28;20466;-81
2022/07/04 07:09:18;;;;;;;1.20;0.80;;;24.90;90.40;;;;;;5020884;28;20470;-83
2022/07/04 07:11:45;;;;;;;1.00;0.87;;;24.90;90.30;;;;;;5030237;28;20961;-83
2022/07/04 07:14:13;;;;;;;1.10;0.80;;;25.00;90.30;;;;;;5029994;28;20469;-83
2022/07/04 07:16:40;;;;;;;2.80;1.10;;;25.10;90.20;;;;;;5025448;28;20457;-83
2022/07/04 07:19:07;;;;;;;2.53;1.00;;;25.10;90.10;;;;;;5028918;28;20458;-83
2022/07/04 07:21:34;;;;;;;2.17;0.90;;;25.00;90.20;;;;;;5028392;28;20482;-82
2022/07/04 07:24:01;;;;;;;1.67;0.90;;;25.00;90.30;;;;;;5023356;28;20928;-83
2022/07/04 07:26:28;;;;;;;1.20;1.00;;;25.00;90.20;;;;;;5026928;28;20508;-84
2022/07/04 07:28:54;;;;;;;1.10;0.80;;;25.10;90.10;;;;;;5015322;28;20881;-83
2022/07/04 07:31:22;;;;;;;1.80;1.00;;;25.20;90.00;;;;;;5024887;28;20458;-84
2022/07/04 07:33:49;;;;;;;1.57;1.00;;;25.30;89.60;;;;;;5024396;28;20465;-84
2022/07/04 07:36:16;;;;;;;1.20;0.90;;;25.30;89.30;;;;;;5031072;28;20438;-84
2022/07/04 07:38:44;;;;;;;1.97;1.10;;;25.40;88.90;;;;;;5023258;28;20465;-83
2022/07/04 07:41:11;;;;;;;1.37;0.90;;;25.50;88.70;;;;;;5026118;28;20485;-83
2022/07/04 07:43:39;;;;;;;2.10;0.90;;;25.50;89.20;;;;;;5026742;28;20956;-83
2022/07/04 07:46:07;;;;;;;1.60;1.00;;;25.60;88.20;;;;;;5033676;28;20838;-83
2022/07/04 07:48:35;;;;;;;1.10;0.77;;;25.60;88.00;;;;;;5020394;28;20454;-82
2022/07/04 07:51:02;;;;;;;1.20;0.80;;;25.70;87.50;;;;;;5022633;28;20873;-83
2022/07/04 07:53:29;;;;;;;1.10;0.77;;;25.70;87.40;;;;;;5024173;28;20498;-82
2022/07/04 07:55:56;;;;;;;1.67;1.10;;;25.70;87.40;;;;;;5020351;28;20988;-83
2022/07/04 07:58:23;;;;;;;1.20;0.80;;;25.60;87.60;;;;;;5019135;28;20474;-84
2022/07/04 08:00:49;;;;;;;1.60;0.97;;;25.50;87.80;;;;;;5035562;28;20807;-84
2022/07/04 08:06:02;;;;;;;1.20;0.90;;;25.70;87.50;;;;;;5027046;28;20457;-84
2022/07/04 08:08:29;;;;;;;1.40;0.80;;;25.70;87.30;;;;;;5021738;28;20451;-84
2022/07/04 08:10:56;;;;;;;1.10;0.90;;;25.50;87.30;;;;;;5027094;28;20961;-82
2022/07/04 08:13:22;;;;;;;1.63;0.90;;;25.50;87.90;;;;;;5029207;28;20462;-83
2022/07/04 08:15:49;;;;;;;1.97;1.00;;;25.50;88.00;;;;;;5023945;28;20443;-84
2022/07/04 08:18:17;;;;;;;1.37;0.90;;;25.60;87.80;;;;;;5022521;28;20973;-82
2022/07/04 08:20:44;;;;;;;2.20;0.90;;;25.70;87.30;;;;;;5025453;28;21014;-80
2022/07/04 08:23:12;;;;;;;1.20;0.80;;;25.80;86.60;;;;;;5025041;28;20537;-82
2022/07/04 08:25:39;;;;;;;1.10;0.80;;;25.80;86.70;;;;;;5030181;28;20470;-83
2022/07/04 08:28:06;;;;;;;2.20;1.07;;;25.80;86.60;;;;;;5033108;28;20485;-82
2022/07/04 08:30:33;;;;;;;1.20;1.10;;;25.80;86.60;;;;;;5028227;28;20455;-81
2022/07/04 08:32:59;;;;;;;1.00;0.70;;;25.80;86.50;;;;;;5025597;28;20458;-82
2022/07/04 08:35:27;;;;;;;2.17;1.00;;;25.90;85.70;;;;;;5031004;28;21198;-81
2022/07/04 08:37:55;;;;;;;1.67;0.77;;;25.90;85.90;;;;;;5028736;28;20447;-82
2022/07/04 08:40:24;;;;;;;2.03;0.90;;;25.90;85.60;;;;;;5031230;28;20458;-82
2022/07/04 08:42:51;;;;;;;1.53;1.00;;;26.00;85.60;;;;;;5037113;28;20469;-81
2022/07/04 08:45:24;;;;;;;1.23;0.80;;;26.00;85.70;;;;;;5033985;28;20480;-81
2022/07/04 08:47:53;;;;;;;1.20;0.70;;;25.90;85.80;;;;;;5017350;28;20472;-82
2022/07/04 08:50:26;;;;;;;1.33;0.80;;;25.80;86.00;;;;;;5020170;28;20473;-82
2022/07/04 08:52:57;;;;;;;1.60;0.90;;;25.70;86.40;;;;;;5032389;28;21037;-81
2022/07/04 08:58:30;;;;;;;1.10;0.80;;;25.80;86.30;;;;;;5018689;28;20446;-81
2022/07/04 09:00:58;;;;;;;1.10;0.90;;;25.90;86.30;;;;;;5023636;28;20486;-82
2022/07/04 09:03:26;;;;;;;1.30;0.93;;;26.00;86.10;;;;;;5026053;28;20560;-82
2022/07/04 09:05:53;;;;;;;1.23;0.87;;;26.00;85.80;;;;;;5023448;28;20971;-83
2022/07/04 09:08:20;;;;;;;1.00;0.80;;;26.10;85.00;;;;;;5027397;28;20462;-82
2022/07/04 09:10:49;;;;;;;1.20;0.90;;;26.10;85.30;;;;;;5029401;28;20489;-80
2022/07/04 09:13:18;;;;;;;1.10;0.97;;;26.00;85.10;;;;;;5021449;28;20540;-81
2022/07/04 09:15:46;;;;;;;1.93;0.93;;;26.00;84.50;;;;;;5029770;28;20469;-81
2022/07/04 09:18:25;;;;;;;1.20;0.80;;;26.00;84.70;;;;;;5026200;28;20461;-83
2022/07/04 09:20:52;;;;;;;2.20;0.90;;;26.00;85.30;;;;;;5026946;28;20490;-82
2022/07/04 09:23:21;;;;;;;2.70;0.90;;;25.90;85.40;;;;;;5026741;28;20466;-82
2022/07/04 09:25:49;;;;;;;1.20;0.80;;;25.90;85.60;;;;;;5030658;28;20482;-81
2022/07/04 09:28:29;;;;;;;1.27;0.87;;;25.90;85.10;;;;;;5030832;28;20466;-81
2022/07/04 09:30:56;;;;;;;1.87;0.90;;;25.90;85.30;;;;;;5027790;28;20459;-81
2022/07/04 09:33:23;;;;;;;1.67;1.00;;;25.90;85.30;;;;;;5030035;28;20451;-82
2022/07/04 09:35:50;;;;;;;1.20;0.80;;;25.90;85.90;;;;;;5026416;28;20968;-81
2022/07/04 09:38:23;;;;;;;1.60;0.93;;;25.90;85.30;;;;;;5020374;28;20462;-81
2022/07/04 09:43:38;;;;;;;1.90;1.10;;;25.90;84.70;;;;;;5025133;28;20516;-82
2022/07/04 09:46:05;;;;;;;1.30;0.90;;;25.90;85.10;;;;;;5030313;28;20457;-82
2022/07/04 09:48:49;;;;;;;1.27;0.90;;;25.90;84.90;;;;;;5025895;28;20459;-82
2022/07/04 09:51:35;;;;;;;1.73;0.90;;;25.80;86.00;;;;;;5031468;28;20517;-81
2022/07/04 09:54:14;;;;;;;1.27;1.00;;;25.80;85.50;;;;;;5023578;28;20450;-81
2022/07/04 09:56:42;;;;;;;1.77;1.03;;;25.80;85.60;;;;;;5029608;28;20967;-81
2022/07/04 09:59:09;;;;;;;1.67;1.00;;;25.70;84.60;;;;;;5024695;28;20828;-82
2022/07/04 10:01:36;;;;;;;3.00;1.13;;;25.60;84.40;;;;;;5022239;28;21099;-82
2022/07/04 10:04:03;;;;;;;1.70;1.00;;;25.60;85.60;;;;;;5017510;28;20512;-82
2022/07/04 10:06:33;;;;;;;1.10;0.73;;;25.50;86.10;;;;;;5019990;28;20550;-81
2022/07/04 10:09:11;;;;;;;1.93;1.00;;;25.50;86.40;;;;;;5016195;28;20463;-82
2022/07/04 10:11:38;;;;;;;1.40;1.00;;;25.50;86.40;;;;;;5017643;28;20496;-81
2022/07/04 10:14:08;;;;;;;1.60;0.93;;;25.50;86.40;;;;;;5026876;28;20524;-82
2022/07/04 10:16:35;;;;;;;1.17;0.90;;;25.60;86.50;;;;;;5024700;28;20473;-83
2022/07/04 10:19:03;;;;;;;2.53;1.00;;;25.50;86.50;;;;;;5020479;28;20537;-80
2022/07/04 10:21:30;;;;;;;1.20;0.80;;;25.60;86.00;;;;;;5022848;28;20861;-82
2022/07/04 10:23:57;;;;;;;3.83;1.23;;;25.50;86.30;;;;;;5017206;28;20838;-82
2022/07/04 10:26:24;;;;;;;1.70;1.00;;;25.50;85.60;;;;;;5019957;28;20561;-81
2022/07/04 10:28:52;;;;;;;1.20;1.10;;;25.50;84.60;;;;;;5020136;28;20517;-82
2022/07/04 10:31:22;;;;;;;1.10;0.97;;;25.40;86.20;;;;;;5024798;28;20554;-81
2022/07/04 10:33:49;;;;;;;1.00;0.80;;;25.30;86.90;;;;;;5021349;28;20463;-82
2022/07/04 10:36:18;;;;;;;1.17;1.00;;;25.30;87.10;;;;;;5020359;28;20478;-81
2022/07/04 10:38:51;;;;;;;1.70;0.90;;;25.20;86.60;;;;;;5023184;28;20960;-81
2022/07/04 10:41:20;;;;;;;1.70;0.87;;;25.20;87.30;;;;;;5012843;28;20521;-82
2022/07/04 10:44:00;;;;;;;1.50;1.00;;;25.20;87.40;;;;;;5013487;28;20548;-81
2022/07/04 10:46:47;;;;;;;5.63;1.10;;;25.20;86.70;;;;;;5020992;28;20485;-81
2022/07/04 10:49:24;;;;;;;1.10;0.80;;;25.10;86.70;;;;;;5027707;28;20457;-81
2022/07/04 10:51:53;;;;;;;1.27;0.90;;;25.10;88.50;;;;;;5021993;28;20905;-82
2022/07/04 10:54:21;;;;;;;1.10;0.80;;;25.00;88.00;;;;;;5018162;28;20475;-82
2022/07/04 10:56:53;;;;;;;1.87;1.20;;;25.00;87.60;;;;;;5024140;28;20465;-80
2022/07/04 10:59:25;;;;;;;2.23;1.10;;;25.00;86.90;;;;;;5023887;28;20810;-84
2022/07/04 11:02:09;;;;;;;1.30;0.87;;;24.90;86.70;;;;;;5017742;28;20513;-82
2022/07/04 11:04:51;;;;;;;1.20;1.00;;;24.90;87.60;;;;;;5006280;28;20450;-81
2022/07/04 11:07:19;;;;;;;1.20;0.80;;;24.90;87.90;;;;;;5023190;28;20461;-81
2022/07/04 11:09:47;;;;;;;1.50;1.23;;;24.90;87.20;;;;;;5022796;28;20458;-81
2022/07/04 11:12:14;;;;;;;1.73;0.90;;;24.90;88.20;;;;;;5027466;28;20473;-81
2022/07/04 11:14:43;;;;;;;1.50;1.07;;;24.90;88.50;;;;;;5015409;28;20493;-81
2022/07/04 11:17:12;;;;;;;1.47;0.90;;;24.80;88.50;;;;;;5021101;28;20945;-81
2022/07/04 11:19:40;;;;;;;1.63;0.90;;;24.80;88.50;;;;;;5009700;28;20463;-81
2022/07/04 11:22:08;;;;;;;1.20;0.90;;;24.80;87.80;;;;;;5019161;28;20513;-82
2022/07/04 11:24:36;;;;;;;1.73;1.33;;;24.80;88.90;;;;;;5014107;28;20897;-82
2022/07/04 11:27:03;;;;;;;2.60;1.00;;;24.90;88.00;;;;;;5020499;28;20462;-82
2022/07/04 11:29:31;;;;;;;1.57;1.27;;;24.90;88.50;;;;;;5023738;28;20458;-81
2022/07/04 11:31:57;;;;;;;1.93;0.90;;;24.90;88.50;;;;;;5023785;28;20467;-81
2022/07/04 11:34:31;;;;;;;2.50;1.00;;;24.90;87.90;;;;;;5017810;28;20984;-81
2022/07/04 11:37:01;;;;;;;1.73;0.90;;;24.90;88.20;;;;;;5026983;28;20796;-82
2022/07/04 11:39:28;;;;;;;1.60;1.10;;;24.90;88.50;;;;;;5022649;28;20472;-82
2022/07/04 11:47:25;;;;;;;2.23;1.00;;;24.70;87.90;;;;;;5021615;28;20453;-83
2022/07/04 11:49:54;;;;;;;1.63;0.90;;;24.70;88.40;;;;;;5022723;28;20513;-82
2022/07/04 11:52:23;;;;;;;2.20;1.40;;;24.70;88.50;;;;;;5024958;28;21136;-82
2022/07/04 11:54:51;;;;;;;1.57;0.90;;;24.60;89.20;;;;;;5027731;28;20817;-82
2022/07/04 11:57:21;;;;;;;1.40;1.00;;;24.60;89.20;;;;;;5026895;28;20488;-83
2022/07/04 11:59:57;;;;;;;2.00;1.30;;;24.70;87.30;;;;;;5021629;28;20443;-83
2022/07/04 12:02:25;;;;;;;1.30;0.90;;;24.70;87.40;;;;;;5027806;28;20489;-81
2022/07/04 12:04:54;;;;;;;1.20;0.90;;;24.70;88.50;;;;;;5022446;28;20485;-84
2022/07/04 12:07:23;;;;;;;1.33;1.00;;;24.70;88.70;;;;;;5024858;28;20466;-83
2022/07/04 12:09:50;;;;;;;1.40;0.87;;;24.70;87.60;;;;;;5024283;28;20431;-83
2022/07/04 12:12:18;;;;;;;1.03;0.80;;;24.70;88.70;;;;;;5022182;28;20926;-83
2022/07/04 12:15:02;;;;;;;1.03;0.63;;;24.70;88.70;;;;;;5031751;28;20450;-85
2022/07/04 12:17:32;;;;;;;3.40;1.10;;;24.70;88.70;;;;;;5026586;28;20941;-84
2022/07/04 12:20:01;;;;;;;1.13;0.90;;;24.70;88.20;;;;;;5022548;28;20462;-85
2022/07/04 12:22:36;;;;;;;1.67;1.00;;;24.70;87.90;;;;;;5017697;28;20482;-83
2022/07/04 12:25:05;;;;;;;1.40;0.80;;;24.70;88.20;;;;;;5020015;28;20450;-84
2022/07/04 12:27:33;;;;;;;1.10;0.70;;;24.70;88.60;;;;;;5024913;28;20470;-84
2022/07/04 12:30:01;;;;;;;1.83;1.13;;;24.70;87.80;;;;;;5020455;28;20957;-83
2022/07/04 12:32:48;;;;;;;1.50;0.90;;;24.70;87.40;;;;;;5025194;28;20485;-83
2022/07/04 12:35:50;;;;;;;1.20;0.83;;;24.80;88.00;;;;;;5028048;28;20478;-84
2022/07/04 12:38:20;;;;;;;1.00;0.70;;;24.80;87.60;;;;;;4945780;29;20560;-83
2022/07/04 12:41:00;;;;;;;1.47;0.80;;;24.80;87.80;;;;;;4948022;28;20477;-83
2022/07/04 12:43:45;;;;;;;1.10;0.90;;;24.80;86.70;;;;;;4985842;28;20482;-82
2022/07/04 12:46:14;;;;;;;1.00;0.80;;;24.70;85.10;;;;;;5018085;28;20470;-84
2022/07/04 12:48:42;;;;;;;1.00;0.90;;;24.70;85.90;;;;;;5020627;28;20459;-84
2022/07/04 12:51:15;;;;;;;2.23;0.80;;;24.70;87.50;;;;;;5015921;28;20462;-86
2022/07/04 12:53:43;;;;;;;1.10;0.90;;;24.60;86.70;;;;;;5022276;28;20957;-85
2022/07/04 12:56:11;;;;;;;2.03;0.90;;;24.60;87.60;;;;;;5029428;28;21063;-83
2022/07/04 12:58:38;;;;;;;1.20;0.90;;;24.60;87.20;;;;;;5023344;28;20447;-84
2022/07/04 13:01:04;;;;;;;1.40;0.90;;;24.60;87.10;;;;;;5030606;28;20465;-86
2022/07/04 13:03:31;;;;;;;1.10;0.77;;;24.60;88.00;;;;;;5027202;28;20528;-83
2022/07/04 13:05:58;;;;;;;1.67;0.80;;;24.60;86.70;;;;;;5030305;28;20490;-84
2022/07/04 13:08:26;;;;;;;1.07;0.70;;;24.60;87.10;;;;;;5025113;28;20463;-83
2022/07/04 13:12:24;;;;;;;1.50;0.70;;;24.60;87.10;;;;;;5026732;28;20443;-85
2022/07/04 13:13:40;;;;;;;1.43;0.80;;;24.60;87.80;;;;;;5022118;28;20454;-83
2022/07/04 13:16:06;;;;;;;1.70;0.80;;;24.60;86.70;;;;;;5028453;28;20957;-83